Archival Weather

Republic

Farmingdale, New York (KFRG)

Report from: Wednesday, February 7, 2024 1:53 AM EST
Current time: Friday, June 14, 2024 9:34 AM EDT

Current weather – Weather history – Daily summaries
Weather forecast

Temperature0.0°C (32.0°F)
Wind chill-3.1°C (26.4°F)
Dew point-5.0°C (23.0°F)
Winds 5 kts (2.6 m/s, 5.8 mph) North (350°)
Visibility10 mi. (16.1 km)
Clouds Sky clear
Altimeter30.24 in.Hg (1024 mB)
Relative humidity69 %
Density altitude-2,129 ft. (-649 m)
Sea-level pressure102.4 kPa (1024 mB, 30.24 in.Hg)
Remarks Fully automated report
Automated weather observing station without precipitation discriminator
Freezing rain sensor not operating
Flight conditions Visual Meteorological Conditions
Raw dataKFRG 070653Z AUTO 35005KT 10SM CLR 00/M05 A3024 RMK AO1 SLP239 T00001050 FZRANO
An error has occurred. This application may no longer respond until reloaded. Reload 🗙